« Back
NWS Peachtree City, Ga » Text Product » CSG Terminal Aerodrome Forecast


Printer-friendly Version
Current Version              Previous Versions:   1  2  3  4  5  6  7  8  9  

Terminal Aerodrome Forecast

598
FTUS42 KFFC 260904 AAA
TAFCSG
TAF AMD
KCSG 260904Z 2609/2706 13004KT P6SM BKN250
     FM261100 14004KT 5SM BR OVC006
     FM261500 15005KT P6SM OVC012
     FM261700 16007KT P6SM -SHRA OVC025
      TEMPO 2620/2624 3SM TSRA BR OVC015CB
     FM270000 15006KT P6SM SCT030 BKN045=



USA.gov is the U.S. government's official web portal to all federal, state and local government web resources and services.